createdAt,value
2023-04-09T00:02:24.368Z,8.10
2023-04-09T00:05:09.809Z,8.00
2023-04-09T00:07:55.325Z,7.90
2023-04-09T00:10:40.714Z,7.90
2023-04-09T00:13:38.692Z,7.90
2023-04-09T00:16:25.135Z,7.90
2023-04-09T00:19:10.691Z,7.90
2023-04-09T00:21:56.612Z,7.80
2023-04-09T00:24:41.893Z,7.80
2023-04-09T00:27:27.323Z,7.70
2023-04-09T00:30:12.691Z,7.70
2023-04-09T00:32:58.460Z,7.70
2023-04-09T00:35:43.741Z,7.60
2023-04-09T00:38:29.496Z,7.50
2023-04-09T00:41:15.026Z,7.50
2023-04-09T00:44:00.293Z,7.50
2023-04-09T00:46:45.622Z,7.40
2023-04-09T00:49:31.120Z,7.40
2023-04-09T00:52:16.642Z,7.30
2023-04-09T00:55:05.489Z,7.30
2023-04-09T00:57:51.293Z,7.20
2023-04-09T01:00:36.697Z,7.20
2023-04-09T01:03:22.392Z,7.10
2023-04-09T01:06:54.217Z,7.10
2023-04-09T01:10:24.033Z,7.10
2023-04-09T01:13:24.201Z,7.10
2023-04-09T01:16:12.671Z,7.10
2023-04-09T01:19:10.489Z,7.00
2023-04-09T01:21:58.901Z,7.00
2023-04-09T01:25:17.054Z,6.90
2023-04-09T01:28:32.385Z,6.90
2023-04-09T01:31:21.727Z,6.90
2023-04-09T01:34:09.673Z,6.90
2023-04-09T01:37:02.830Z,6.90
2023-04-09T01:39:48.211Z,6.80
2023-04-09T01:42:33.993Z,6.80
2023-04-09T01:45:21.047Z,6.80
2023-04-09T01:48:07.278Z,6.70
2023-04-09T01:50:53.515Z,6.70
2023-04-09T01:53:39.254Z,6.60
2023-04-09T01:56:24.848Z,6.40
2023-04-09T01:59:10.802Z,6.30
2023-04-09T02:02:09.467Z,6.20
2023-04-09T02:04:58.828Z,6.20
2023-04-09T02:07:52.860Z,6.10
2023-04-09T02:10:40.596Z,6.00
2023-04-09T02:13:28.375Z,6.00
2023-04-09T02:16:15.735Z,6.00
2023-04-09T02:19:01.556Z,6.10
2023-04-09T02:21:47.461Z,6.10
2023-04-09T02:24:32.904Z,6.00
2023-04-09T02:27:18.433Z,6.10
2023-04-09T02:30:04.558Z,6.10
2023-04-09T02:32:50.050Z,6.10
2023-04-09T02:35:35.924Z,6.10
2023-04-09T02:38:21.407Z,6.20
2023-04-09T02:41:06.829Z,6.10
2023-04-09T02:43:52.302Z,6.00
2023-04-09T02:46:39.811Z,6.00
2023-04-09T02:49:25.059Z,6.00
2023-04-09T02:52:10.882Z,6.00
2023-04-09T02:54:56.364Z,6.00
2023-04-09T02:57:41.889Z,6.10
2023-04-09T03:00:27.703Z,6.10
2023-04-09T03:03:13.157Z,6.00
2023-04-09T03:05:59.035Z,6.00
2023-04-09T03:08:44.522Z,5.90
2023-04-09T03:11:29.838Z,5.80
2023-04-09T03:14:15.058Z,5.70
2023-04-09T03:17:00.474Z,5.60
2023-04-09T03:19:45.818Z,5.50
2023-04-09T03:22:39.064Z,5.50
2023-04-09T03:25:24.613Z,5.50
2023-04-09T03:28:10.029Z,5.40
2023-04-09T03:30:55.529Z,5.40
2023-04-09T03:33:41.306Z,5.40
2023-04-09T03:36:26.853Z,5.40
2023-04-09T03:39:12.037Z,5.40
2023-04-09T03:41:59.937Z,5.40
2023-04-09T03:44:45.402Z,5.40
2023-04-09T03:47:30.923Z,5.40
2023-04-09T03:50:16.445Z,5.40
2023-04-09T03:53:01.780Z,5.50
2023-04-09T03:55:47.278Z,5.40
2023-04-09T03:58:32.831Z,5.50
2023-04-09T04:01:18.620Z,5.50
2023-04-09T04:04:04.130Z,5.50
2023-04-09T04:06:49.899Z,5.50
2023-04-09T04:09:35.127Z,5.60
2023-04-09T04:12:20.347Z,5.60
2023-04-09T04:15:06.665Z,5.60
2023-04-09T04:17:52.650Z,5.60
2023-04-09T04:20:39.961Z,5.70
2023-04-09T04:23:25.321Z,5.80
2023-04-09T04:26:11.582Z,5.90
2023-04-09T04:28:56.714Z,6.00
2023-04-09T04:31:42.266Z,6.00
2023-04-09T04:34:27.765Z,6.10
2023-04-09T04:37:14.220Z,6.20
2023-04-09T04:40:02.606Z,6.20
2023-04-09T04:42:48.200Z,6.30
2023-04-09T04:45:33.476Z,6.30
2023-04-09T04:48:18.855Z,6.30
2023-04-09T04:51:04.512Z,6.40
2023-04-09T04:53:50.326Z,6.40
2023-04-09T04:56:35.795Z,6.40
2023-04-09T04:59:21.188Z,6.50
2023-04-09T05:02:10.000Z,6.50
2023-04-09T05:04:55.481Z,6.60
2023-04-09T05:07:40.841Z,6.70
2023-04-09T05:10:26.157Z,6.80
2023-04-09T05:13:11.495Z,6.90
2023-04-09T05:15:56.966Z,7.00
2023-04-09T05:18:43.220Z,7.10
2023-04-09T05:21:28.583Z,7.20
2023-04-09T05:24:13.833Z,7.30
2023-04-09T05:26:59.250Z,7.50
2023-04-09T05:29:44.723Z,7.50
2023-04-09T05:32:29.977Z,7.70
2023-04-09T05:35:15.372Z,7.80
2023-04-09T05:38:00.812Z,8.00
2023-04-09T05:40:46.132Z,8.10
2023-04-09T05:43:31.700Z,8.30
2023-04-09T05:46:17.107Z,8.40
2023-04-09T05:49:02.461Z,8.60
2023-04-09T05:51:47.943Z,8.80
2023-04-09T05:54:33.416Z,8.90
2023-04-09T05:57:18.795Z,9.20
2023-04-09T06:00:05.176Z,10.30
2023-04-09T06:02:51.585Z,11.60
2023-04-09T06:05:37.081Z,12.40
2023-04-09T06:08:22.387Z,12.40
2023-04-09T06:11:12.277Z,12.00
2023-04-09T06:13:57.981Z,11.50
2023-04-09T06:16:43.347Z,11.30
2023-04-09T06:19:29.050Z,11.20
2023-04-09T06:22:14.353Z,11.20
2023-04-09T06:25:00.219Z,11.20
2023-04-09T06:27:46.003Z,11.30
2023-04-09T06:30:31.335Z,11.30
2023-04-09T06:33:16.899Z,11.30
2023-04-09T06:36:02.408Z,11.40
2023-04-09T06:38:48.365Z,11.50
2023-04-09T06:41:33.868Z,11.70
2023-04-09T06:44:19.306Z,11.80
2023-04-09T06:47:04.802Z,12.00
2023-04-09T06:49:50.294Z,12.20
2023-04-09T06:52:35.751Z,12.30
2023-04-09T06:55:21.377Z,12.40
2023-04-09T06:58:06.753Z,12.50
2023-04-09T07:00:52.120Z,12.70
2023-04-09T07:03:37.569Z,12.90
2023-04-09T07:06:23.621Z,13.00
2023-04-09T07:09:09.403Z,13.20
2023-04-09T07:11:54.822Z,13.30
2023-04-09T07:14:40.353Z,13.40
2023-04-09T07:17:25.865Z,13.50
2023-04-09T07:20:12.004Z,13.60
2023-04-09T07:22:57.336Z,13.70
2023-04-09T07:25:42.726Z,13.80
2023-04-09T07:28:28.728Z,14.00
2023-04-09T07:31:14.714Z,14.10
2023-04-09T07:34:00.352Z,14.20
2023-04-09T07:36:45.893Z,14.30
2023-04-09T07:39:32.028Z,14.40
2023-04-09T07:42:18.018Z,14.50
2023-04-09T07:45:03.988Z,14.60
2023-04-09T07:47:50.000Z,14.80
2023-04-09T07:50:35.685Z,14.80
2023-04-09T07:53:20.949Z,14.80
2023-04-09T07:56:07.182Z,14.90
2023-04-09T07:58:52.869Z,15.00
2023-04-09T08:01:38.603Z,15.00
2023-04-09T08:04:24.301Z,15.10
2023-04-09T08:07:10.005Z,15.10
2023-04-09T08:09:55.478Z,15.20
2023-04-09T08:12:41.245Z,15.40
2023-04-09T08:15:26.747Z,15.50
2023-04-09T08:18:12.191Z,15.70
2023-04-09T08:20:57.753Z,15.80
2023-04-09T08:23:43.537Z,16.00
2023-04-09T08:26:28.728Z,16.20
2023-04-09T08:29:15.463Z,16.40
2023-04-09T08:32:01.077Z,16.60
2023-04-09T08:34:46.793Z,16.80
2023-04-09T08:37:32.342Z,17.10
2023-04-09T08:40:18.587Z,17.20
2023-04-09T08:43:08.502Z,17.30
2023-04-09T08:45:55.358Z,17.40
2023-04-09T08:48:47.401Z,17.50
2023-04-09T08:51:32.833Z,17.40
2023-04-09T08:54:19.024Z,17.40
2023-04-09T08:57:07.856Z,17.60
2023-04-09T08:59:53.641Z,17.60
2023-04-09T09:02:39.118Z,17.70
2023-04-09T09:05:46.291Z,17.80
2023-04-09T09:08:31.718Z,18.10
2023-04-09T09:11:28.033Z,18.20
2023-04-09T09:14:17.913Z,18.40
2023-04-09T09:17:05.763Z,18.40
2023-04-09T09:19:51.732Z,18.40
2023-04-09T09:22:54.912Z,18.30
2023-04-09T09:25:42.272Z,18.30
2023-04-09T09:28:35.121Z,18.30
2023-04-09T09:31:23.025Z,18.50
2023-04-09T09:34:09.540Z,18.90
2023-04-09T09:36:55.319Z,19.00
2023-04-09T09:39:44.102Z,19.10
2023-04-09T09:42:30.315Z,19.30
2023-04-09T09:45:18.964Z,19.50
2023-04-09T09:48:05.943Z,19.90
2023-04-09T09:50:52.363Z,20.30
2023-04-09T09:53:41.023Z,21.20
2023-04-09T09:56:35.474Z,22.00
2023-04-09T09:59:23.682Z,22.50
2023-04-09T10:02:21.219Z,22.50
2023-04-09T10:05:08.785Z,24.50
2023-04-09T10:07:58.476Z,24.80
2023-04-09T10:10:44.653Z,24.50
2023-04-09T10:13:37.910Z,23.40
2023-04-09T10:16:24.057Z,22.30
2023-04-09T10:19:10.187Z,21.80
2023-04-09T10:22:07.013Z,22.30
2023-04-09T10:24:52.788Z,23.40
2023-04-09T10:27:38.238Z,24.10
2023-04-09T10:30:35.927Z,25.70
2023-04-09T10:33:27.203Z,27.20
2023-04-09T10:36:13.802Z,26.70
2023-04-09T10:38:59.592Z,24.60
2023-04-09T10:41:46.742Z,22.80
2023-04-09T10:44:32.475Z,21.30
2023-04-09T10:47:37.385Z,20.50
2023-04-09T10:50:27.515Z,20.00
2023-04-09T10:53:25.714Z,19.70
2023-04-09T10:56:17.381Z,19.60
2023-04-09T10:59:02.788Z,19.80
2023-04-09T11:01:54.655Z,20.70
2023-04-09T11:05:17.745Z,20.80
2023-04-09T11:08:12.768Z,20.70
2023-04-09T11:10:59.698Z,20.30
2023-04-09T11:13:45.573Z,20.50
2023-04-09T11:16:31.979Z,23.40
2023-04-09T11:19:17.607Z,26.60
2023-04-09T11:22:06.507Z,29.00
2023-04-09T11:24:54.253Z,29.70
2023-04-09T11:27:47.532Z,30.40
2023-04-09T11:30:33.082Z,30.40
2023-04-09T11:33:20.222Z,29.40
2023-04-09T11:36:06.643Z,30.50
2023-04-09T11:38:52.564Z,32.00
2023-04-09T11:41:39.024Z,33.40
2023-04-09T11:44:24.817Z,33.20
2023-04-09T11:47:12.272Z,31.60
2023-04-09T11:49:57.735Z,28.30
2023-04-09T11:52:45.683Z,26.10
2023-04-09T11:55:34.410Z,24.90
2023-04-09T11:58:25.064Z,23.40
2023-04-09T12:01:10.609Z,22.60
2023-04-09T12:03:56.357Z,21.90
2023-04-09T12:06:42.169Z,21.70
2023-04-09T12:09:27.660Z,21.60
2023-04-09T12:12:19.820Z,21.50
2023-04-09T12:15:25.646Z,21.30
2023-04-09T12:18:13.617Z,21.20
2023-04-09T12:20:59.292Z,21.00
2023-04-09T12:23:44.741Z,20.90
2023-04-09T12:26:30.152Z,20.80
2023-04-09T12:29:19.532Z,20.50
2023-04-09T12:32:05.643Z,20.20
2023-04-09T12:34:50.943Z,20.00
2023-04-09T12:37:36.351Z,19.80
2023-04-09T12:40:22.473Z,19.60
2023-04-09T12:43:07.836Z,19.60
2023-04-09T12:45:53.344Z,19.70
2023-04-09T12:48:39.552Z,19.60
2023-04-09T12:51:25.467Z,19.50
2023-04-09T12:54:11.145Z,19.50
2023-04-09T12:56:56.818Z,19.70
2023-04-09T12:59:42.294Z,19.70
2023-04-09T13:02:27.826Z,19.50
2023-04-09T13:05:13.697Z,19.20
2023-04-09T13:07:59.267Z,18.80
2023-04-09T13:10:44.782Z,18.60
2023-04-09T13:13:30.385Z,18.30
2023-04-09T13:16:16.280Z,18.10
2023-04-09T13:19:01.767Z,18.00
2023-04-09T13:21:47.449Z,17.90
2023-04-09T13:24:32.874Z,17.90
2023-04-09T13:27:18.396Z,17.90
2023-04-09T13:30:04.883Z,17.90
2023-04-09T13:32:50.553Z,18.00
2023-04-09T13:35:36.508Z,18.00
2023-04-09T13:38:22.330Z,18.10
2023-04-09T13:41:07.937Z,18.00
2023-04-09T13:43:53.732Z,17.90
2023-04-09T13:46:39.621Z,17.80
2023-04-09T13:49:25.752Z,17.70
2023-04-09T13:52:11.776Z,17.70
2023-04-09T13:54:57.188Z,17.70
2023-04-09T13:57:42.661Z,17.60
2023-04-09T14:00:28.041Z,17.50
2023-04-09T14:03:13.756Z,17.30
2023-04-09T14:05:59.466Z,17.30
2023-04-09T14:08:45.192Z,17.20
2023-04-09T14:11:30.706Z,17.10
2023-04-09T14:14:16.355Z,17.00
2023-04-09T14:17:02.063Z,17.00
2023-04-09T14:19:47.316Z,16.90
2023-04-09T14:22:32.826Z,16.90
2023-04-09T14:25:18.312Z,16.80
2023-04-09T14:28:03.705Z,16.80
2023-04-09T14:30:49.060Z,16.80
2023-04-09T14:33:34.330Z,16.60
2023-04-09T14:36:19.672Z,16.50
2023-04-09T14:39:05.003Z,16.40
2023-04-09T14:41:50.473Z,16.20
2023-04-09T14:44:36.477Z,16.00
2023-04-09T14:47:22.018Z,15.70
2023-04-09T14:50:08.763Z,15.60
2023-04-09T14:52:54.173Z,15.50
2023-04-09T14:55:39.550Z,15.50
2023-04-09T14:58:25.349Z,15.40
2023-04-09T15:01:11.963Z,15.30
2023-04-09T15:03:58.366Z,15.10
2023-04-09T15:06:44.352Z,14.90
2023-04-09T15:09:30.235Z,14.70
2023-04-09T15:12:15.996Z,14.50
2023-04-09T15:15:01.604Z,14.30
2023-04-09T15:18:04.970Z,14.10
2023-04-09T15:20:50.974Z,13.80
2023-04-09T15:23:36.448Z,13.70
2023-04-09T15:26:22.064Z,13.60
2023-04-09T15:29:09.775Z,13.30
2023-04-09T15:31:55.544Z,13.20
2023-04-09T15:34:41.452Z,13.10
2023-04-09T15:37:26.920Z,13.10
2023-04-09T15:40:13.260Z,13.10
2023-04-09T15:42:58.832Z,13.00
2023-04-09T15:45:45.276Z,13.00
2023-04-09T15:48:31.318Z,13.00
2023-04-09T15:51:17.438Z,12.90
2023-04-09T15:54:02.871Z,12.80
2023-04-09T15:56:48.375Z,12.80
2023-04-09T15:59:33.802Z,12.80
2023-04-09T16:02:19.707Z,12.70
2023-04-09T16:05:06.922Z,12.70
2023-04-09T16:07:52.532Z,12.60
2023-04-09T16:10:38.449Z,12.60
2023-04-09T16:13:24.125Z,12.40
2023-04-09T16:16:09.847Z,12.40
2023-04-09T16:18:55.933Z,12.40
2023-04-09T16:21:41.479Z,12.40
2023-04-09T16:24:26.889Z,12.40
2023-04-09T16:27:13.668Z,12.40
2023-04-09T16:29:59.469Z,12.30
2023-04-09T16:32:45.139Z,12.30
2023-04-09T16:35:30.689Z,12.20
2023-04-09T16:38:16.098Z,12.20
2023-04-09T16:41:01.895Z,12.10
2023-04-09T16:43:47.576Z,12.10
2023-04-09T16:46:33.114Z,12.00
2023-04-09T16:49:18.489Z,11.90
2023-04-09T16:52:04.515Z,11.80
2023-04-09T16:54:50.289Z,11.80
2023-04-09T16:57:35.950Z,11.70
2023-04-09T17:00:21.664Z,11.70
2023-04-09T17:03:07.539Z,11.70
2023-04-09T17:05:53.476Z,11.60
2023-04-09T17:08:39.004Z,11.60
2023-04-09T17:11:24.259Z,11.50
2023-04-09T17:14:09.547Z,11.50
2023-04-09T17:16:55.105Z,11.50
2023-04-09T17:19:42.797Z,11.40
2023-04-09T17:22:28.372Z,11.40
2023-04-09T17:25:13.752Z,11.30
2023-04-09T17:27:59.143Z,11.30
2023-04-09T17:30:45.168Z,11.30
2023-04-09T17:33:30.718Z,11.40
2023-04-09T17:36:25.457Z,11.30
2023-04-09T17:39:10.852Z,11.30
2023-04-09T17:41:56.605Z,11.30
2023-04-09T17:44:43.072Z,11.20
2023-04-09T17:47:28.697Z,11.20
2023-04-09T17:50:14.212Z,11.20
2023-04-09T17:53:00.209Z,11.10
2023-04-09T17:55:48.483Z,11.10
2023-04-09T17:58:34.039Z,11.10
2023-04-09T18:01:19.652Z,11.10
2023-04-09T18:04:05.829Z,11.10
2023-04-09T18:06:55.081Z,11.10
2023-04-09T18:09:40.544Z,11.10
2023-04-09T18:12:25.894Z,11.00
2023-04-09T18:15:11.521Z,11.00
2023-04-09T18:17:59.429Z,11.00
2023-04-09T18:20:45.241Z,11.00
2023-04-09T18:23:30.660Z,10.90
2023-04-09T18:26:16.102Z,10.90
2023-04-09T18:29:01.610Z,10.80
2023-04-09T18:31:47.487Z,10.80
2023-04-09T18:34:32.912Z,10.80
2023-04-09T18:37:19.399Z,10.80
2023-04-09T18:40:10.003Z,10.80
2023-04-09T18:42:55.447Z,10.80
2023-04-09T18:45:41.424Z,10.80
2023-04-09T18:48:26.736Z,10.90
2023-04-09T18:51:12.032Z,10.90
2023-04-09T18:53:58.060Z,10.90
2023-04-09T18:56:45.373Z,10.90
2023-04-09T18:59:33.055Z,10.90
2023-04-09T19:02:18.812Z,10.90
2023-04-09T19:05:05.457Z,10.80
2023-04-09T19:07:50.784Z,10.90
2023-04-09T19:10:36.210Z,10.80
2023-04-09T19:13:21.646Z,10.80
2023-04-09T19:16:08.295Z,10.80
2023-04-09T19:18:53.981Z,10.80
2023-04-09T19:21:39.637Z,10.80
2023-04-09T19:24:25.550Z,10.80
2023-04-09T19:27:11.194Z,10.70
2023-04-09T19:29:56.400Z,10.70
2023-04-09T19:32:41.901Z,10.70
2023-04-09T19:35:27.455Z,10.70
2023-04-09T19:38:13.194Z,10.60
2023-04-09T19:40:58.645Z,10.60
2023-04-09T19:43:46.402Z,10.60
2023-04-09T19:46:32.223Z,10.60
2023-04-09T19:49:17.571Z,10.60
2023-04-09T19:52:02.889Z,10.60
2023-04-09T19:54:56.747Z,10.50
2023-04-09T19:57:42.222Z,10.50
2023-04-09T20:00:28.062Z,10.50
2023-04-09T20:03:13.538Z,10.50
2023-04-09T20:05:59.438Z,10.50
2023-04-09T20:08:44.826Z,10.60
2023-04-09T20:11:30.509Z,10.50
2023-04-09T20:14:15.956Z,10.60
2023-04-09T20:17:01.544Z,10.60
2023-04-09T20:19:47.023Z,10.60
2023-04-09T20:22:32.288Z,10.60
2023-04-09T20:25:17.826Z,10.60
2023-04-09T20:28:04.040Z,10.70
2023-04-09T20:30:49.727Z,10.70
2023-04-09T20:33:35.416Z,10.60
2023-04-09T20:36:21.157Z,10.60
2023-04-09T20:39:06.697Z,10.70
2023-04-09T20:41:53.364Z,10.70
2023-04-09T20:44:38.575Z,10.60
2023-04-09T20:47:24.081Z,10.70
2023-04-09T20:50:10.477Z,10.70
2023-04-09T20:52:56.146Z,10.70
2023-04-09T20:55:42.044Z,10.60
2023-04-09T20:58:27.813Z,10.60
2023-04-09T21:01:13.762Z,10.70
2023-04-09T21:03:59.430Z,10.60
2023-04-09T21:06:45.282Z,10.70
2023-04-09T21:09:30.595Z,10.70
2023-04-09T21:12:15.876Z,10.70
2023-04-09T21:15:01.207Z,10.70
2023-04-09T21:17:46.544Z,10.80
2023-04-09T21:20:31.982Z,10.70
2023-04-09T21:23:17.506Z,10.70
2023-04-09T21:26:04.263Z,10.70
2023-04-09T21:28:49.978Z,10.70
2023-04-09T21:31:35.418Z,10.70
2023-04-09T21:34:20.673Z,10.70
2023-04-09T21:37:06.582Z,10.70
2023-04-09T21:39:52.062Z,10.70
2023-04-09T21:42:37.385Z,10.70
2023-04-09T21:45:22.869Z,10.70
2023-04-09T21:48:08.283Z,10.70
2023-04-09T21:50:53.851Z,10.60
2023-04-09T21:53:39.476Z,10.60
2023-04-09T21:56:25.041Z,10.70
2023-04-09T21:59:10.412Z,10.70
2023-04-09T22:01:55.887Z,10.70
2023-04-09T22:04:41.667Z,10.70
2023-04-09T22:07:27.212Z,10.70
2023-04-09T22:10:12.472Z,10.70
2023-04-09T22:12:57.913Z,10.70
2023-04-09T22:15:43.605Z,10.60
2023-04-09T22:18:28.911Z,10.60
2023-04-09T22:21:17.635Z,10.60
2023-04-09T22:24:03.443Z,10.50
2023-04-09T22:26:48.798Z,10.50
2023-04-09T22:29:34.045Z,10.50
2023-04-09T22:32:19.520Z,10.40
2023-04-09T22:35:05.488Z,10.50
2023-04-09T22:37:50.990Z,10.50
2023-04-09T22:40:36.432Z,10.50
2023-04-09T22:43:21.708Z,10.50
2023-04-09T22:46:07.475Z,10.50
2023-04-09T22:48:53.160Z,10.50
2023-04-09T22:51:41.311Z,10.50
2023-04-09T22:54:27.149Z,10.50
2023-04-09T22:57:12.963Z,10.50
2023-04-09T22:59:58.392Z,10.40
2023-04-09T23:02:43.982Z,10.50
2023-04-09T23:05:29.777Z,10.50
2023-04-09T23:08:15.115Z,10.50
2023-04-09T23:11:00.466Z,10.50
2023-04-09T23:13:46.019Z,10.50
2023-04-09T23:16:31.517Z,10.40
2023-04-09T23:19:17.169Z,10.40
2023-04-09T23:22:02.755Z,10.40
2023-04-09T23:24:48.156Z,10.40
2023-04-09T23:27:33.684Z,10.40
2023-04-09T23:30:19.166Z,10.40
2023-04-09T23:33:04.930Z,10.40
2023-04-09T23:35:50.956Z,10.40
2023-04-09T23:38:36.506Z,10.40
2023-04-09T23:41:21.925Z,10.40
2023-04-09T23:44:07.275Z,10.40
2023-04-09T23:46:52.776Z,10.40
2023-04-09T23:49:38.227Z,10.40
2023-04-09T23:52:23.801Z,10.40
2023-04-09T23:55:09.885Z,10.40
2023-04-09T23:57:55.606Z,10.40
